Time;durP1;ratioP1;P1;durP2;ratioP2;P2;SDS_P1;SDS_P2;PMS_P1;PMS_P2;Temp;Humidity;BMP_temperature;BMP_pressure;BME280_temperature;BME280_humidity;BME280_pressure;Samples;Min_cycle;Max_cycle;Signal;HPM_P1;HPM_P2
2023/12/26 00:00:06;;;;;;;5.15;4.20;;;11.40;99.90;;;;;;5093469;28;20240;-84
2023/12/26 00:02:33;;;;;;;5.97;4.45;;;11.40;99.90;;;;;;5093102;28;20247;-84
2023/12/26 00:04:59;;;;;;;3.28;3.05;;;11.40;99.90;;;;;;5093696;28;20234;-78
2023/12/26 00:07:26;;;;;;;2.38;1.75;;;11.40;99.90;;;;;;5093342;28;20226;-84
2023/12/26 00:09:55;;;;;;;2.72;1.50;;;11.40;99.90;;;;;;5083315;28;20699;-85
2023/12/26 00:12:24;;;;;;;2.38;1.35;;;11.50;99.90;;;;;;5092294;28;20273;-79
2023/12/26 00:14:53;;;;;;;1.40;1.17;;;11.40;99.90;;;;;;5093283;28;20215;-78
2023/12/26 00:17:20;;;;;;;1.42;1.25;;;11.40;99.90;;;;;;5094528;28;20230;-78
2023/12/26 00:19:47;;;;;;;1.75;1.35;;;11.40;99.90;;;;;;5093016;28;20223;-79
2023/12/26 00:22:16;;;;;;;2.90;1.65;;;11.40;99.90;;;;;;5093723;28;20223;-85
2023/12/26 00:24:43;;;;;;;3.75;3.40;;;11.40;99.90;;;;;;5093358;28;20246;-85
2023/12/26 00:27:12;;;;;;;6.47;2.20;;;11.40;99.90;;;;;;5093475;28;20231;-78
2023/12/26 00:29:41;;;;;;;3.03;2.00;;;11.40;99.90;;;;;;5093635;28;20227;-84
2023/12/26 00:32:08;;;;;;;3.30;1.25;;;11.40;99.90;;;;;;5094131;28;20216;-85
2023/12/26 00:34:35;;;;;;;3.22;1.30;;;11.40;99.90;;;;;;5093469;28;20227;-84
2023/12/26 00:37:02;;;;;;;1.77;1.67;;;11.40;99.90;;;;;;5098094;28;20677;-85
2023/12/26 00:39:29;;;;;;;2.20;1.65;;;11.40;99.90;;;;;;5097498;28;20222;-78
2023/12/26 00:41:56;;;;;;;1.77;1.55;;;11.40;99.90;;;;;;5097164;28;20225;-86
2023/12/26 00:44:24;;;;;;;3.58;1.38;;;11.30;99.90;;;;;;5097692;28;20547;-78
2023/12/26 00:46:52;;;;;;;3.25;1.42;;;11.30;99.90;;;;;;5097177;28;20234;-85
2023/12/26 00:49:19;;;;;;;1.40;1.30;;;11.30;99.90;;;;;;5098682;28;20246;-85
2023/12/26 00:51:46;;;;;;;2.33;1.75;;;11.30;99.90;;;;;;5097029;28;20736;-85
2023/12/26 00:54:13;;;;;;;1.63;1.50;;;11.30;99.90;;;;;;5097574;28;20230;-85
2023/12/26 00:56:40;;;;;;;2.03;1.23;;;11.30;99.90;;;;;;5097272;28;20273;-78
2023/12/26 00:59:07;;;;;;;1.85;1.73;;;11.30;99.90;;;;;;5096997;28;20226;-78
2023/12/26 01:01:36;;;;;;;1.88;1.70;;;11.30;99.90;;;;;;5096224;28;20235;-79
2023/12/26 01:04:03;;;;;;;1.40;1.30;;;11.20;99.90;;;;;;5097562;28;20223;-85
2023/12/26 01:06:30;;;;;;;1.77;1.67;;;11.30;99.90;;;;;;5097250;28;20238;-78
2023/12/26 01:08:57;;;;;;;3.25;1.70;;;11.20;99.90;;;;;;5096465;28;20245;-78
2023/12/26 01:11:24;;;;;;;1.40;1.30;;;11.20;99.90;;;;;;5097017;28;20677;-85
2023/12/26 01:13:51;;;;;;;1.83;1.38;;;11.20;99.90;;;;;;5095612;28;20223;-85
2023/12/26 01:16:18;;;;;;;2.97;1.50;;;11.20;99.90;;;;;;5097035;28;20673;-85
2023/12/26 01:18:47;;;;;;;1.58;1.30;;;11.20;99.90;;;;;;5096493;28;20242;-78
2023/12/26 01:21:14;;;;;;;1.50;1.40;;;11.20;99.90;;;;;;5096480;28;20215;-78
2023/12/26 01:23:41;;;;;;;2.78;1.58;;;11.20;99.90;;;;;;5096173;28;20309;-78
2023/12/26 01:26:09;;;;;;;2.00;1.23;;;11.20;99.90;;;;;;5096150;28;20247;-78
2023/12/26 01:28:36;;;;;;;1.63;1.20;;;11.20;99.90;;;;;;5096845;28;20249;-85
2023/12/26 01:31:04;;;;;;;1.40;1.30;;;11.20;99.90;;;;;;5096526;28;20219;-85
2023/12/26 01:33:31;;;;;;;2.50;1.33;;;11.20;99.90;;;;;;5096517;28;20703;-78
2023/12/26 01:35:59;;;;;;;2.47;1.83;;;11.20;99.90;;;;;;5096039;28;20226;-78
2023/12/26 01:38:26;;;;;;;1.50;1.40;;;11.20;99.90;;;;;;5096983;28;20221;-85
2023/12/26 01:40:53;;;;;;;1.50;1.40;;;11.20;99.90;;;;;;5096364;28;20741;-85
2023/12/26 01:43:20;;;;;;;1.73;1.63;;;11.20;99.90;;;;;;5096816;28;20227;-85
2023/12/26 01:45:47;;;;;;;1.60;1.50;;;11.20;99.90;;;;;;5096680;28;20696;-85
2023/12/26 01:48:14;;;;;;;2.03;1.35;;;11.20;99.90;;;;;;5096722;28;20223;-78
2023/12/26 01:50:41;;;;;;;2.53;1.83;;;11.10;99.90;;;;;;5095567;28;20688;-84
2023/12/26 01:53:12;;;;;;;4.03;2.17;;;11.20;99.90;;;;;;5097371;28;20563;-85
2023/12/26 01:55:39;;;;;;;2.78;1.80;;;11.30;99.90;;;;;;5096871;28;20228;-78
2023/12/26 01:58:07;;;;;;;4.40;1.58;;;11.30;99.90;;;;;;5096090;28;20231;-85
2023/12/26 02:00:34;;;;;;;2.20;1.20;;;11.30;99.90;;;;;;5096499;28;20224;-78
2023/12/26 02:03:02;;;;;;;1.00;0.90;;;11.30;99.90;;;;;;5095327;28;20328;-78
2023/12/26 02:05:29;;;;;;;0.93;0.82;;;11.30;99.90;;;;;;5095588;28;20268;-85
2023/12/26 02:07:56;;;;;;;1.08;1.00;;;11.30;99.90;;;;;;5095761;28;20228;-78
2023/12/26 02:10:25;;;;;;;0.80;0.80;;;11.30;99.90;;;;;;5096068;28;20227;-85
2023/12/26 02:12:52;;;;;;;1.50;1.10;;;11.30;99.90;;;;;;5095701;28;20695;-85
2023/12/26 02:15:19;;;;;;;0.82;0.80;;;11.30;99.90;;;;;;5095852;28;20413;-85
2023/12/26 02:17:48;;;;;;;2.15;1.02;;;11.40;99.90;;;;;;5095678;28;20308;-85
2023/12/26 02:20:15;;;;;;;0.90;0.88;;;11.40;99.90;;;;;;5095576;28;20226;-78
2023/12/26 02:22:42;;;;;;;1.30;0.98;;;11.50;99.90;;;;;;5095463;28;20701;-78
2023/12/26 02:25:12;;;;;;;1.10;0.70;;;11.50;99.90;;;;;;5094885;28;20219;-78
2023/12/26 02:27:40;;;;;;;0.60;0.60;;;11.50;99.90;;;;;;5095794;28;20684;-78
2023/12/26 02:30:09;;;;;;;1.40;0.77;;;11.50;99.90;;;;;;5095311;28;20215;-85
2023/12/26 02:32:38;;;;;;;0.80;0.68;;;11.50;99.90;;;;;;5096087;28;20251;-85
2023/12/26 02:35:06;;;;;;;1.17;0.60;;;11.50;99.90;;;;;;5094862;28;20223;-78
2023/12/26 02:37:35;;;;;;;1.10;0.70;;;11.50;99.90;;;;;;5095514;28;20561;-78
2023/12/26 02:40:08;;;;;;;0.68;0.60;;;11.60;99.90;;;;;;5095137;28;20219;-78
2023/12/26 02:42:37;;;;;;;1.40;1.30;;;11.60;99.90;;;;;;5095148;28;20231;-79
2023/12/26 02:45:05;;;;;;;1.10;1.00;;;11.60;99.90;;;;;;5094648;28;20228;-79
2023/12/26 02:47:32;;;;;;;1.20;1.10;;;11.60;99.90;;;;;;5095533;28;20231;-84
2023/12/26 02:49:59;;;;;;;1.08;0.90;;;11.60;99.90;;;;;;5094924;28;20227;-78
2023/12/26 02:52:53;;;;;;;0.80;0.70;;;11.70;99.90;;;;;;5094681;28;20223;-79
2023/12/26 02:55:20;;;;;;;0.90;0.90;;;11.70;99.90;;;;;;5094193;28;20219;-79
2023/12/26 02:57:48;;;;;;;1.80;0.70;;;11.70;99.90;;;;;;5095413;28;20344;-80
2023/12/26 03:00:16;;;;;;;0.80;0.70;;;11.80;99.90;;;;;;5094020;28;20238;-78
2023/12/26 03:02:43;;;;;;;0.80;0.70;;;11.80;99.90;;;;;;5095092;28;20357;-79
2023/12/26 03:05:10;;;;;;;0.85;0.70;;;11.80;99.90;;;;;;5094698;28;20256;-78
2023/12/26 03:07:37;;;;;;;1.35;0.60;;;11.80;99.90;;;;;;5095029;28;20219;-85
2023/12/26 03:10:08;;;;;;;1.70;0.70;;;11.80;99.90;;;;;;5095344;28;20224;-85
2023/12/26 03:12:35;;;;;;;0.85;0.70;;;11.80;99.90;;;;;;5095882;28;20247;-85
2023/12/26 03:15:05;;;;;;;0.80;0.80;;;11.80;99.90;;;;;;5104679;28;20223;-85
2023/12/26 03:17:31;;;;;;;0.73;0.60;;;11.80;99.90;;;;;;5097945;28;20219;-78
2023/12/26 03:20:00;;;;;;;1.05;0.75;;;11.80;99.90;;;;;;5098380;28;20233;-84
2023/12/26 03:22:27;;;;;;;1.17;0.60;;;11.80;99.90;;;;;;5096506;28;20247;-85
2023/12/26 03:24:54;;;;;;;0.80;0.70;;;11.80;99.90;;;;;;5096727;28;20223;-85
2023/12/26 03:27:22;;;;;;;0.50;0.50;;;11.80;99.90;;;;;;5095213;28;20245;-84
2023/12/26 03:29:49;;;;;;;0.70;0.70;;;11.70;99.90;;;;;;5096580;28;20227;-85
2023/12/26 03:32:18;;;;;;;0.75;0.70;;;11.70;99.90;;;;;;5094838;28;20234;-85
2023/12/26 03:34:45;;;;;;;0.75;0.60;;;11.60;99.90;;;;;;5095925;28;20233;-85
2023/12/26 03:37:12;;;;;;;0.60;0.50;;;11.70;99.90;;;;;;5094533;28;20227;-84
2023/12/26 03:39:41;;;;;;;0.60;0.60;;;11.60;99.90;;;;;;5094735;28;20223;-78
2023/12/26 03:42:08;;;;;;;0.60;0.60;;;11.70;99.90;;;;;;5092933;28;20219;-79
2023/12/26 03:44:35;;;;;;;0.60;0.50;;;11.60;99.90;;;;;;5093734;28;20237;-78
2023/12/26 03:47:02;;;;;;;0.63;0.60;;;11.60;99.90;;;;;;5093518;28;20306;-79
2023/12/26 03:49:32;;;;;;;0.60;0.60;;;11.60;99.90;;;;;;5093824;28;20215;-78
2023/12/26 03:51:59;;;;;;;0.80;0.60;;;11.60;99.90;;;;;;5093624;28;20219;-78
2023/12/26 03:54:26;;;;;;;0.80;0.60;;;11.50;99.90;;;;;;5093104;28;20226;-79
2023/12/26 03:56:53;;;;;;;1.23;0.70;;;11.60;99.90;;;;;;5094341;28;20227;-79
2023/12/26 03:59:20;;;;;;;0.90;0.70;;;11.60;99.90;;;;;;5093588;28;20230;-79
2023/12/26 04:01:47;;;;;;;0.95;0.80;;;11.60;99.90;;;;;;5094016;28;20703;-85
2023/12/26 04:04:14;;;;;;;0.85;0.70;;;11.60;99.90;;;;;;5093694;28;20227;-85
2023/12/26 04:06:43;;;;;;;0.77;0.60;;;11.60;99.90;;;;;;5094233;28;20227;-85
2023/12/26 04:09:10;;;;;;;0.60;0.50;;;11.60;99.90;;;;;;5093759;28;20250;-79
2023/12/26 04:11:37;;;;;;;0.80;0.80;;;11.60;99.90;;;;;;5092218;28;20310;-79
2023/12/26 04:14:04;;;;;;;0.60;0.60;;;11.60;99.90;;;;;;5091145;28;20246;-80
2023/12/26 04:16:32;;;;;;;0.70;0.70;;;11.60;99.90;;;;;;5084940;28;20231;-78
2023/12/26 04:19:03;;;;;;;1.58;0.70;;;11.60;99.90;;;;;;5093736;28;20219;-85
2023/12/26 04:21:30;;;;;;;1.00;0.77;;;11.60;99.90;;;;;;5093254;28;20227;-78
2023/12/26 04:23:58;;;;;;;0.70;0.60;;;11.60;99.90;;;;;;5093659;28;20571;-78
2023/12/26 04:26:25;;;;;;;1.02;0.90;;;11.60;99.90;;;;;;5092489;28;20227;-78
2023/12/26 04:28:52;;;;;;;0.73;0.70;;;11.60;99.90;;;;;;5093519;28;20304;-78
2023/12/26 04:31:19;;;;;;;1.10;0.80;;;11.60;99.90;;;;;;5093614;28;20224;-85
2023/12/26 04:33:47;;;;;;;1.27;0.70;;;11.60;99.90;;;;;;5094041;28;20242;-85
2023/12/26 04:36:14;;;;;;;1.08;1.00;;;11.60;99.90;;;;;;5093029;28;20681;-78
2023/12/26 04:38:41;;;;;;;0.77;0.70;;;11.70;99.90;;;;;;5094072;28;20223;-86
2023/12/26 04:41:12;;;;;;;1.20;0.70;;;11.70;99.90;;;;;;5094035;28;20223;-85
2023/12/26 04:43:40;;;;;;;1.40;0.70;;;11.70;99.90;;;;;;5093080;28;20234;-79
2023/12/26 04:46:07;;;;;;;1.98;1.00;;;11.70;99.90;;;;;;5093341;28;20680;-79
2023/12/26 04:48:34;;;;;;;1.17;0.80;;;11.60;99.90;;;;;;5093002;28;20227;-80
2023/12/26 04:51:02;;;;;;;1.50;0.70;;;11.70;99.90;;;;;;5093356;28;20227;-79
2023/12/26 04:53:29;;;;;;;0.80;0.70;;;11.70;99.90;;;;;;5093198;28;20257;-85
2023/12/26 04:55:56;;;;;;;0.70;0.70;;;11.70;99.90;;;;;;5093746;28;20223;-79
2023/12/26 04:58:24;;;;;;;0.95;0.80;;;11.70;99.90;;;;;;5092830;28;20219;-85
2023/12/26 05:00:51;;;;;;;0.80;0.70;;;11.70;99.90;;;;;;5094436;28;20229;-85
2023/12/26 05:03:18;;;;;;;0.70;0.70;;;11.70;99.90;;;;;;5092696;28;20293;-84
2023/12/26 05:05:46;;;;;;;0.90;0.70;;;11.70;99.90;;;;;;5093611;28;20226;-85
2023/12/26 05:08:13;;;;;;;0.80;0.70;;;11.70;99.90;;;;;;5093400;28;20223;-79
2023/12/26 05:10:40;;;;;;;1.05;0.70;;;11.70;99.90;;;;;;5092835;28;20303;-85
2023/12/26 05:13:07;;;;;;;0.70;0.70;;;11.70;99.90;;;;;;5093574;28;20230;-85
2023/12/26 05:15:36;;;;;;;1.00;0.73;;;11.70;99.90;;;;;;5093535;28;20227;-85
2023/12/26 05:18:04;;;;;;;1.42;0.70;;;11.70;99.90;;;;;;5092693;28;20223;-78
2023/12/26 05:20:32;;;;;;;1.05;0.50;;;11.80;99.90;;;;;;5092351;28;20695;-79
2023/12/26 05:23:01;;;;;;;0.73;0.70;;;11.70;99.90;;;;;;5096167;28;20277;-79
2023/12/26 05:25:28;;;;;;;1.45;1.00;;;11.80;99.90;;;;;;5096256;28;20215;-85
2023/12/26 05:27:55;;;;;;;1.67;0.70;;;11.70;99.90;;;;;;5097543;28;20260;-79
2023/12/26 05:30:23;;;;;;;0.73;0.70;;;11.70;99.90;;;;;;5096260;28;20233;-79
2023/12/26 05:32:51;;;;;;;0.70;0.60;;;11.70;99.90;;;;;;5097006;28;20247;-85
2023/12/26 05:35:18;;;;;;;0.63;0.60;;;11.70;99.90;;;;;;5097000;28;20226;-79
2023/12/26 05:37:46;;;;;;;1.63;1.02;;;11.70;99.90;;;;;;5096508;28;20219;-79
2023/12/26 05:40:13;;;;;;;0.75;0.70;;;11.70;99.90;;;;;;5097032;28;20537;-79
2023/12/26 05:42:40;;;;;;;0.60;0.60;;;11.70;99.90;;;;;;5095928;28;20234;-79
2023/12/26 05:45:13;;;;;;;0.80;0.70;;;11.70;99.90;;;;;;5096798;28;20223;-79
2023/12/26 05:47:40;;;;;;;0.70;0.60;;;11.70;99.90;;;;;;5096349;28;20231;-85
2023/12/26 05:50:10;;;;;;;0.70;0.70;;;11.70;99.90;;;;;;5097273;28;20223;-79
2023/12/26 05:52:37;;;;;;;0.70;0.70;;;11.70;99.90;;;;;;5095786;28;20242;-85
2023/12/26 05:55:05;;;;;;;1.02;0.95;;;11.70;99.90;;;;;;5096995;28;20216;-79
2023/12/26 05:57:37;;;;;;;0.60;0.60;;;11.70;99.90;;;;;;5096132;28;20215;-79
2023/12/26 06:00:04;;;;;;;1.10;1.00;;;11.70;99.90;;;;;;5096668;28;20246;-79
2023/12/26 06:02:31;;;;;;;0.70;0.60;;;11.70;99.90;;;;;;5096122;28;20243;-79
2023/12/26 06:04:58;;;;;;;0.60;0.55;;;11.70;99.90;;;;;;5096978;28;20215;-79
2023/12/26 06:07:27;;;;;;;0.75;0.75;;;11.70;99.90;;;;;;5095734;28;20273;-79
2023/12/26 06:09:54;;;;;;;1.70;0.70;;;11.70;99.90;;;;;;5096392;28;20665;-78
2023/12/26 06:12:21;;;;;;;1.17;0.80;;;11.70;99.90;;;;;;5096317;28;20234;-79
2023/12/26 06:14:48;;;;;;;1.42;1.33;;;11.70;99.90;;;;;;5095852;28;20215;-79
2023/12/26 06:17:15;;;;;;;0.85;0.85;;;11.60;99.90;;;;;;5096299;28;20224;-79
2023/12/26 06:19:50;;;;;;;1.90;1.10;;;11.60;99.90;;;;;;5096233;28;20225;-86
2023/12/26 06:22:17;;;;;;;1.50;1.40;;;11.60;99.90;;;;;;5096659;28;20279;-85
2023/12/26 06:24:45;;;;;;;1.23;0.93;;;11.50;99.90;;;;;;5095596;28;20292;-85
2023/12/26 06:27:13;;;;;;;0.60;0.60;;;11.50;99.90;;;;;;5096363;28;20222;-86
2023/12/26 06:29:40;;;;;;;1.15;0.73;;;11.50;99.90;;;;;;5096130;28;20230;-80
2023/12/26 06:32:07;;;;;;;0.60;0.60;;;11.50;99.90;;;;;;5095196;28;20227;-79
2023/12/26 06:34:34;;;;;;;0.80;0.60;;;11.50;99.90;;;;;;5095776;28;20223;-85
2023/12/26 06:37:01;;;;;;;0.77;0.75;;;11.50;99.90;;;;;;5095360;28;20231;-78
2023/12/26 06:39:28;;;;;;;0.70;0.70;;;11.50;99.90;;;;;;5095949;28;20227;-85
2023/12/26 06:41:57;;;;;;;0.90;0.70;;;11.50;99.90;;;;;;5096793;28;20235;-86
2023/12/26 06:44:24;;;;;;;1.00;0.70;;;11.50;99.90;;;;;;5096460;28;20219;-79
2023/12/26 06:46:51;;;;;;;0.80;0.70;;;11.50;99.90;;;;;;5094699;28;20215;-79
2023/12/26 06:49:19;;;;;;;0.70;0.68;;;11.50;99.90;;;;;;5095024;28;20227;-79
2023/12/26 06:51:46;;;;;;;0.85;0.70;;;11.50;99.90;;;;;;5094346;28;20227;-85
2023/12/26 06:54:13;;;;;;;0.98;0.77;;;11.50;99.90;;;;;;5094730;28;20231;-79
2023/12/26 06:56:42;;;;;;;0.70;0.70;;;11.50;99.90;;;;;;5083988;28;20224;-78
2023/12/26 06:59:19;;;;;;;0.98;0.52;;;11.50;99.90;;;;;;5093428;28;20679;-78
2023/12/26 07:01:47;;;;;;;0.88;0.60;;;11.60;99.90;;;;;;5093951;28;20223;-86
2023/12/26 07:04:14;;;;;;;3.00;0.70;;;11.60;99.90;;;;;;5095014;28;20220;-86
2023/12/26 07:06:51;;;;;;;0.80;0.73;;;11.60;99.90;;;;;;5082820;28;20223;-86
2023/12/26 07:09:18;;;;;;;0.90;0.70;;;11.60;99.90;;;;;;5093978;28;20215;-86
2023/12/26 07:11:45;;;;;;;0.68;0.60;;;11.60;99.90;;;;;;5094225;28;20242;-85
2023/12/26 07:14:13;;;;;;;0.55;0.50;;;11.60;99.90;;;;;;5094540;28;20536;-86
2023/12/26 07:16:40;;;;;;;1.25;1.08;;;11.60;99.90;;;;;;5094043;28;20238;-85
2023/12/26 07:19:07;;;;;;;0.68;0.68;;;11.60;99.90;;;;;;5094478;28;20556;-86
2023/12/26 07:21:34;;;;;;;0.85;0.70;;;11.50;99.90;;;;;;5094291;28;20226;-86
2023/12/26 07:24:02;;;;;;;1.60;0.80;;;11.50;99.90;;;;;;5093488;28;20226;-86
2023/12/26 07:26:29;;;;;;;2.00;0.73;;;11.50;99.90;;;;;;5094703;28;20681;-86
2023/12/26 07:28:56;;;;;;;0.90;0.82;;;11.50;99.90;;;;;;5094426;28;20235;-86
2023/12/26 07:31:25;;;;;;;1.15;0.70;;;11.50;99.90;;;;;;5094449;28;20219;-78
2023/12/26 07:33:53;;;;;;;1.67;0.85;;;11.50;99.90;;;;;;5094074;28;20345;-85
2023/12/26 07:36:20;;;;;;;0.95;0.85;;;11.50;99.90;;;;;;5094417;28;20219;-78
2023/12/26 07:38:47;;;;;;;2.45;0.80;;;11.50;99.90;;;;;;5093516;28;20232;-79
2023/12/26 07:41:14;;;;;;;1.42;1.05;;;11.50;99.90;;;;;;5093427;28;20226;-78
2023/12/26 07:43:41;;;;;;;1.65;1.10;;;11.40;99.90;;;;;;5093222;28;20231;-78
2023/12/26 07:46:08;;;;;;;0.95;0.85;;;11.40;99.90;;;;;;5093728;28;20733;-85
2023/12/26 07:48:39;;;;;;;1.20;0.98;;;11.40;99.90;;;;;;5093957;28;20227;-78
2023/12/26 07:51:06;;;;;;;1.70;0.93;;;11.40;99.90;;;;;;5093539;28;20223;-78
2023/12/26 07:53:33;;;;;;;1.50;1.33;;;11.40;99.90;;;;;;5093374;28;20565;-78
2023/12/26 07:56:01;;;;;;;1.02;0.93;;;11.30;99.90;;;;;;5093217;28;20224;-85
2023/12/26 07:58:28;;;;;;;1.77;0.88;;;11.40;99.90;;;;;;5094119;28;20699;-85
2023/12/26 08:00:55;;;;;;;1.40;1.27;;;11.40;99.90;;;;;;5093944;28;20223;-85
2023/12/26 08:03:23;;;;;;;2.47;1.25;;;11.40;99.90;;;;;;5094162;28;20235;-79
2023/12/26 08:05:51;;;;;;;1.30;1.13;;;11.40;99.90;;;;;;5093956;28;20281;-85
2023/12/26 08:08:31;;;;;;;2.35;1.48;;;11.40;99.90;;;;;;5094601;28;20224;-85
2023/12/26 08:11:07;;;;;;;1.90;1.33;;;11.40;99.90;;;;;;5094059;28;20234;-85
2023/12/26 08:13:34;;;;;;;1.65;1.52;;;11.40;99.90;;;;;;5095139;28;20641;-85
2023/12/26 08:16:03;;;;;;;2.25;1.05;;;11.40;99.90;;;;;;5096294;28;20226;-85
2023/12/26 08:18:30;;;;;;;1.55;1.00;;;11.40;99.90;;;;;;5101836;28;20231;-85
2023/12/26 08:20:58;;;;;;;1.85;1.05;;;11.40;99.90;;;;;;5108253;28;20270;-85
2023/12/26 08:23:25;;;;;;;1.10;1.00;;;11.40;99.90;;;;;;5111367;28;20237;-85
2023/12/26 08:25:52;;;;;;;2.92;1.45;;;11.50;99.90;;;;;;5111412;28;20226;-84
2023/12/26 08:28:19;;;;;;;2.88;1.45;;;11.50;99.90;;;;;;5109712;28;20233;-85
2023/12/26 08:30:48;;;;;;;1.55;1.35;;;11.50;99.90;;;;;;5107931;28;20254;-84
2023/12/26 08:33:16;;;;;;;3.05;1.38;;;11.50;99.90;;;;;;5099688;28;20519;-85
2023/12/26 08:35:43;;;;;;;2.15;1.50;;;11.50;99.90;;;;;;5095538;28;20676;-85
2023/12/26 08:38:11;;;;;;;2.05;1.40;;;11.50;99.90;;;;;;5095232;28;20219;-85
2023/12/26 08:40:38;;;;;;;1.90;1.33;;;11.50;99.90;;;;;;5094250;28;20227;-85
2023/12/26 08:43:24;;;;;;;1.50;1.00;;;11.50;99.90;;;;;;5094260;28;20314;-85
2023/12/26 08:45:51;;;;;;;3.22;1.60;;;11.50;99.90;;;;;;5094384;28;20261;-85
2023/12/26 08:48:18;;;;;;;2.55;2.03;;;11.40;99.90;;;;;;5084309;28;20227;-85
2023/12/26 08:50:45;;;;;;;4.32;2.38;;;11.40;99.90;;;;;;5093719;28;20223;-85
2023/12/26 08:53:21;;;;;;;4.22;1.65;;;11.50;99.90;;;;;;5094370;28;20586;-85
2023/12/26 08:55:49;;;;;;;1.50;1.40;;;11.40;99.90;;;;;;5093984;28;20340;-85
2023/12/26 08:58:17;;;;;;;4.75;1.92;;;11.40;99.90;;;;;;5097835;28;20303;-85
2023/12/26 09:00:45;;;;;;;2.40;1.80;;;11.50;99.90;;;;;;5098124;28;20246;-85
2023/12/26 09:03:39;;;;;;;2.15;1.88;;;11.40;99.90;;;;;;5098327;28;20295;-86
2023/12/26 09:06:06;;;;;;;2.20;1.50;;;11.50;99.90;;;;;;5097231;28;20219;-85
2023/12/26 09:08:36;;;;;;;3.25;1.45;;;11.50;99.90;;;;;;5099389;28;20223;-85
2023/12/26 09:11:04;;;;;;;2.70;1.98;;;11.50;99.90;;;;;;5098828;28;20229;-86
2023/12/26 09:13:31;;;;;;;2.75;1.80;;;11.50;99.90;;;;;;5098852;28;20219;-86
2023/12/26 09:16:00;;;;;;;2.72;2.53;;;11.40;99.90;;;;;;5097235;28;20539;-86
2023/12/26 09:18:29;;;;;;;5.13;2.80;;;11.40;99.90;;;;;;5098291;28;20223;-86
2023/12/26 09:20:59;;;;;;;2.90;2.50;;;11.40;99.90;;;;;;5097752;28;20238;-86
2023/12/26 09:23:28;;;;;;;3.08;2.10;;;11.40;99.90;;;;;;5099205;28;20224;-86
2023/12/26 09:25:57;;;;;;;2.45;1.60;;;11.40;99.90;;;;;;5098977;28;20639;-84
2023/12/26 09:28:25;;;;;;;2.60;1.40;;;11.30;99.90;;;;;;5105541;28;20694;-84
2023/12/26 09:30:52;;;;;;;2.58;1.20;;;11.20;99.90;;;;;;5105689;28;20233;-84
2023/12/26 09:33:19;;;;;;;2.15;1.33;;;11.30;99.90;;;;;;5099221;28;20843;-84
2023/12/26 09:35:46;;;;;;;3.20;2.08;;;11.30;99.90;;;;;;5098064;28;20227;-85
2023/12/26 09:38:13;;;;;;;3.13;1.65;;;11.20;99.90;;;;;;5096821;28;20528;-85
2023/12/26 09:40:41;;;;;;;7.78;2.80;;;11.30;99.90;;;;;;5097107;28;20306;-85
2023/12/26 09:43:09;;;;;;;2.28;1.70;;;11.20;99.90;;;;;;5096450;28;20251;-85
2023/12/26 09:45:37;;;;;;;3.17;1.95;;;11.30;99.90;;;;;;5096467;28;20600;-84
2023/12/26 09:48:05;;;;;;;2.90;1.52;;;11.20;99.90;;;;;;5097134;28;20219;-85
2023/12/26 09:50:33;;;;;;;2.35;1.27;;;11.20;99.90;;;;;;5096971;28;20227;-85
2023/12/26 09:53:02;;;;;;;5.18;1.50;;;11.20;99.90;;;;;;5096877;28;20238;-84
2023/12/26 09:55:30;;;;;;;2.10;1.55;;;11.20;99.90;;;;;;5100713;28;20269;-85
2023/12/26 09:57:58;;;;;;;2.83;1.52;;;11.20;99.90;;;;;;5086061;28;20224;-85
2023/12/26 10:00:27;;;;;;;3.75;1.60;;;11.20;99.90;;;;;;5097077;28;20215;-85
2023/12/26 10:02:55;;;;;;;1.70;1.50;;;11.20;99.90;;;;;;5095932;28;20223;-84
2023/12/26 10:05:22;;;;;;;3.45;1.63;;;11.30;99.90;;;;;;5096665;28;20227;-85
2023/12/26 10:07:49;;;;;;;3.97;1.35;;;11.20;99.90;;;;;;5094938;28;20228;-84
2023/12/26 10:10:20;;;;;;;5.22;1.55;;;11.20;99.90;;;;;;5096318;28;20216;-84
2023/12/26 10:12:47;;;;;;;2.60;2.35;;;11.20;99.90;;;;;;5096022;28;20235;-85
2023/12/26 10:15:14;;;;;;;3.13;2.05;;;11.20;99.90;;;;;;5096916;28;20532;-85
2023/12/26 10:17:57;;;;;;;4.20;1.70;;;11.30;99.90;;;;;;5086174;28;20226;-85
2023/12/26 10:20:24;;;;;;;2.55;1.65;;;11.20;99.90;;;;;;5096563;28;20223;-86
2023/12/26 10:22:51;;;;;;;6.13;2.60;;;11.30;99.90;;;;;;5101401;28;20227;-86
2023/12/26 10:25:20;;;;;;;8.73;3.50;;;11.40;99.90;;;;;;5107661;28;20220;-85
2023/12/26 10:27:54;;;;;;;4.63;2.00;;;11.40;99.90;;;;;;5107961;28;20223;-85
2023/12/26 10:30:22;;;;;;;3.75;2.55;;;11.30;99.90;;;;;;5110187;28;20266;-86
2023/12/26 10:33:00;;;;;;;7.15;4.43;;;11.30;99.90;;;;;;5100720;28;20238;-85
2023/12/26 10:35:27;;;;;;;5.68;1.90;;;11.40;99.90;;;;;;5101904;28;20231;-86
2023/12/26 10:37:54;;;;;;;2.78;1.45;;;11.40;99.90;;;;;;5103165;28;20227;-86
2023/12/26 10:40:21;;;;;;;4.35;1.70;;;11.50;99.90;;;;;;5104581;28;20226;-85
2023/12/26 10:42:51;;;;;;;3.67;1.80;;;11.40;99.90;;;;;;5100712;28;20227;-85
2023/12/26 10:45:20;;;;;;;5.93;1.63;;;11.50;99.90;;;;;;5099758;28;20306;-85
2023/12/26 10:47:50;;;;;;;8.80;1.80;;;11.60;99.90;;;;;;5101035;28;20231;-85
2023/12/26 10:50:18;;;;;;;3.83;1.80;;;11.60;99.90;;;;;;5099861;28;20235;-85
2023/12/26 10:52:52;;;;;;;4.13;1.70;;;11.60;99.90;;;;;;5091215;28;20228;-85
2023/12/26 10:55:20;;;;;;;2.95;1.55;;;11.60;99.90;;;;;;5102030;28;20231;-85
2023/12/26 10:57:48;;;;;;;3.70;1.95;;;11.60;99.90;;;;;;5105463;28;20228;-85
2023/12/26 11:00:14;;;;;;;5.80;1.75;;;11.60;99.90;;;;;;5112468;28;20222;-85
2023/12/26 11:02:43;;;;;;;4.10;1.80;;;11.70;99.90;;;;;;5113953;28;20227;-85
2023/12/26 11:05:09;;;;;;;3.72;1.63;;;11.70;99.90;;;;;;5109597;28;20219;-85
2023/12/26 11:07:36;;;;;;;3.58;2.00;;;11.60;99.90;;;;;;5110356;28;20234;-85
2023/12/26 11:10:03;;;;;;;5.07;1.65;;;11.60;99.90;;;;;;5110363;28;20231;-84
2023/12/26 11:12:29;;;;;;;6.15;2.63;;;11.60;99.90;;;;;;5105465;28;20228;-85
2023/12/26 11:14:55;;;;;;;3.27;2.13;;;11.70;99.90;;;;;;5099316;28;20232;-84
2023/12/26 11:17:23;;;;;;;3.80;2.87;;;11.70;99.90;;;;;;5103196;28;20475;-85
2023/12/26 11:19:50;;;;;;;6.57;1.77;;;11.70;99.90;;;;;;5105151;28;20986;-85
2023/12/26 11:22:16;;;;;;;4.20;2.08;;;11.70;99.90;;;;;;5102368;28;20250;-85
2023/12/26 11:24:45;;;;;;;5.00;1.88;;;11.70;99.90;;;;;;5099498;28;20223;-85
2023/12/26 11:27:20;;;;;;;3.35;2.20;;;11.70;99.90;;;;;;5096204;28;20223;-78
2023/12/26 11:29:48;;;;;;;4.35;2.50;;;11.70;99.90;;;;;;5094217;28;20214;-85
2023/12/26 11:32:14;;;;;;;5.72;3.00;;;11.70;99.90;;;;;;5093189;28;20256;-85
2023/12/26 11:34:40;;;;;;;4.78;2.30;;;11.70;99.90;;;;;;5093988;28;20296;-78
2023/12/26 11:37:07;;;;;;;4.65;2.00;;;11.60;99.90;;;;;;5093741;28;20215;-78
2023/12/26 11:39:34;;;;;;;6.03;3.00;;;11.60;99.90;;;;;;5093929;28;20566;-78
2023/12/26 11:42:02;;;;;;;4.18;2.30;;;11.60;99.90;;;;;;5093626;28;20284;-78
2023/12/26 11:44:29;;;;;;;3.65;1.65;;;11.60;99.90;;;;;;5093699;28;20219;-78
2023/12/26 11:46:55;;;;;;;3.85;1.80;;;11.50;99.90;;;;;;5094041;28;20219;-78
2023/12/26 11:49:21;;;;;;;4.60;2.27;;;11.50;99.90;;;;;;5082816;28;20246;-78
2023/12/26 11:51:48;;;;;;;3.90;2.60;;;11.50;99.90;;;;;;5093613;28;20515;-77
2023/12/26 11:54:14;;;;;;;7.75;2.80;;;11.60;99.90;;;;;;5093336;28;20450;-77
2023/12/26 11:56:40;;;;;;;7.10;2.50;;;11.60;99.90;;;;;;5094424;28;20273;-78
2023/12/26 11:59:09;;;;;;;6.43;1.80;;;11.60;99.90;;;;;;5093571;28;20681;-84
2023/12/26 12:01:35;;;;;;;7.13;2.40;;;11.60;99.90;;;;;;5096000;28;20464;-85
2023/12/26 12:04:01;;;;;;;3.72;1.55;;;11.50;99.90;;;;;;5092886;28;20635;-78
2023/12/26 12:06:28;;;;;;;4.30;2.25;;;11.50;99.90;;;;;;5093839;28;20288;-78
2023/12/26 12:09:04;;;;;;;4.15;2.00;;;11.50;99.90;;;;;;5093257;28;20220;-78
2023/12/26 12:11:31;;;;;;;6.93;2.85;;;11.50;99.90;;;;;;5093588;28;20222;-78
2023/12/26 12:13:58;;;;;;;4.35;2.55;;;11.50;99.90;;;;;;5092669;28;20224;-77
2023/12/26 12:16:25;;;;;;;5.47;1.90;;;11.50;99.90;;;;;;5093684;28;20211;-86
2023/12/26 12:19:01;;;;;;;3.25;2.45;;;11.50;99.90;;;;;;5093953;28;20219;-85
2023/12/26 12:21:35;;;;;;;3.30;2.00;;;11.50;99.90;;;;;;5093717;28;20233;-85
2023/12/26 12:24:04;;;;;;;3.15;1.80;;;11.40;99.90;;;;;;5094351;28;20291;-84
2023/12/26 12:27:14;;;;;;;4.68;1.55;;;11.40;99.90;;;;;;5094175;28;20310;-86
2023/12/26 12:29:59;;;;;;;6.03;1.90;;;11.40;99.90;;;;;;5073242;28;20215;-78
2023/12/26 12:32:31;;;;;;;5.97;2.25;;;11.50;99.90;;;;;;5084378;28;20561;-84
2023/12/26 12:35:11;;;;;;;5.85;2.35;;;11.50;99.90;;;;;;5098261;28;20227;-85
2023/12/26 12:37:37;;;;;;;3.17;2.05;;;11.40;99.90;;;;;;5097347;28;20222;-86
2023/12/26 12:40:05;;;;;;;5.73;2.27;;;11.50;99.90;;;;;;5098062;28;20223;-78
2023/12/26 12:42:34;;;;;;;3.85;1.85;;;11.50;99.90;;;;;;5096697;28;20551;-78
2023/12/26 12:45:00;;;;;;;4.47;1.90;;;11.50;99.90;;;;;;5097727;28;20215;-85
2023/12/26 12:47:38;;;;;;;3.97;1.90;;;11.50;99.90;;;;;;5096626;28;20211;-86
2023/12/26 12:50:05;;;;;;;5.10;3.80;;;11.50;99.90;;;;;;5098005;28;20259;-85
2023/12/26 12:52:31;;;;;;;4.45;2.40;;;11.60;99.90;;;;;;5097118;28;20247;-78